createdAt,value
2019-04-06T00:00:26.173Z,83.97
2019-04-06T00:02:52.188Z,83.30
2019-04-06T00:05:18.217Z,84.43
2019-04-06T00:07:44.314Z,86.47
2019-04-06T00:10:11.092Z,82.27
2019-04-06T00:12:37.224Z,84.77
2019-04-06T00:15:05.376Z,81.77
2019-04-06T00:17:31.481Z,85.50
2019-04-06T00:19:57.526Z,82.80
2019-04-06T00:22:23.547Z,86.93
2019-04-06T00:24:49.681Z,87.33
2019-04-06T00:27:15.907Z,86.43
2019-04-06T00:29:41.920Z,88.67
2019-04-06T00:32:07.944Z,82.13
2019-04-06T00:34:34.170Z,93.70
2019-04-06T00:37:00.300Z,91.00
2019-04-06T00:39:26.420Z,87.60
2019-04-06T00:41:52.549Z,89.67
2019-04-06T00:44:18.873Z,92.63
2019-04-06T00:46:44.898Z,94.90
2019-04-06T00:49:11.022Z,89.27
2019-04-06T00:51:37.147Z,88.20
2019-04-06T00:54:03.309Z,92.03
2019-04-06T00:56:29.479Z,100.10
2019-04-06T00:58:55.674Z,95.10
2019-04-06T01:01:21.760Z,91.67
2019-04-06T01:03:47.773Z,104.17
2019-04-06T01:06:13.794Z,94.07
2019-04-06T01:08:39.919Z,97.87
2019-04-06T01:11:06.044Z,97.70
2019-04-06T01:13:32.067Z,94.27
2019-04-06T01:15:58.241Z,94.33
2019-04-06T01:18:24.317Z,96.33
2019-04-06T01:20:50.340Z,95.00
2019-04-06T01:23:16.366Z,100.50
2019-04-06T01:25:42.393Z,97.13
2019-04-06T01:28:08.615Z,91.40
2019-04-06T01:30:34.708Z,95.77
2019-04-06T01:33:00.762Z,97.97
2019-04-06T01:35:26.785Z,99.97
2019-04-06T01:37:53.017Z,99.57
2019-04-06T01:40:19.036Z,97.47
2019-04-06T01:42:45.061Z,90.93
2019-04-06T01:45:11.182Z,96.70
2019-04-06T01:47:37.203Z,99.27
2019-04-06T01:50:04.047Z,92.57
2019-04-06T01:52:30.169Z,92.50
2019-04-06T01:54:56.295Z,98.40
2019-04-06T01:57:22.322Z,97.30
2019-04-06T01:59:48.246Z,98.30
2019-04-06T02:02:14.172Z,96.10
2019-04-06T02:04:40.224Z,98.13
2019-04-06T02:07:06.472Z,101.23
2019-04-06T02:09:32.556Z,99.93
2019-04-06T02:11:58.965Z,98.97
2019-04-06T02:14:25.157Z,97.47
2019-04-06T02:16:51.186Z,98.13
2019-04-06T02:19:17.246Z,99.00
2019-04-06T02:21:43.259Z,98.53
2019-04-06T02:24:09.283Z,99.67
2019-04-06T02:26:35.304Z,96.93
2019-04-06T02:29:01.331Z,95.63
2019-04-06T02:31:27.537Z,97.60
2019-04-06T02:33:53.815Z,98.50
2019-04-06T02:36:19.827Z,89.13
2019-04-06T02:38:45.852Z,96.53
2019-04-06T02:41:12.020Z,102.97
2019-04-06T02:43:38.375Z,111.63
2019-04-06T02:46:04.718Z,111.80
2019-04-06T02:48:31.153Z,114.03
2019-04-06T02:50:57.173Z,110.30
2019-04-06T02:53:23.373Z,111.37
2019-04-06T02:55:49.524Z,111.70
2019-04-06T02:58:15.649Z,109.07
2019-04-06T03:00:42.115Z,101.70
2019-04-06T03:03:08.540Z,114.13
2019-04-06T03:05:34.534Z,107.00
2019-04-06T03:08:00.780Z,107.73
2019-04-06T03:10:26.888Z,116.73
2019-04-06T03:12:52.951Z,113.43
2019-04-06T03:15:18.931Z,121.27
2019-04-06T03:17:44.957Z,117.03
2019-04-06T03:20:11.237Z,117.90
2019-04-06T03:22:37.204Z,123.53
2019-04-06T03:25:05.379Z,123.07
2019-04-06T03:27:31.412Z,120.10
2019-04-06T03:29:59.128Z,117.43
2019-04-06T03:32:25.487Z,124.03
2019-04-06T03:34:52.284Z,120.73
2019-04-06T03:37:18.367Z,127.37
2019-04-06T03:39:44.485Z,120.13
2019-04-06T03:42:11.328Z,128.53
2019-04-06T03:44:37.775Z,121.00
2019-04-06T03:47:03.891Z,131.00
2019-04-06T03:49:29.904Z,127.07
2019-04-06T03:51:56.145Z,113.70
2019-04-06T03:54:22.165Z,113.20
2019-04-06T03:56:48.252Z,111.97
2019-04-06T03:59:14.409Z,109.50
2019-04-06T04:01:40.341Z,116.23
2019-04-06T04:04:06.638Z,99.93
2019-04-06T04:06:32.677Z,105.33
2019-04-06T04:08:58.788Z,103.93
2019-04-06T04:11:24.971Z,106.40
2019-04-06T04:13:50.952Z,103.70
2019-04-06T04:16:16.977Z,107.97
2019-04-06T04:18:43.003Z,103.20
2019-04-06T04:21:09.042Z,108.40
2019-04-06T04:23:35.157Z,105.63
2019-04-06T04:26:01.371Z,107.30
2019-04-06T04:28:27.421Z,106.43
2019-04-06T04:30:53.628Z,110.47
2019-04-06T04:33:19.648Z,101.77
2019-04-06T04:35:45.914Z,112.53
2019-04-06T04:38:12.222Z,105.63
2019-04-06T04:40:38.219Z,110.37
2019-04-06T04:43:04.245Z,105.53
2019-04-06T04:45:30.275Z,107.93
2019-04-06T04:47:56.262Z,104.10
2019-04-06T04:50:22.444Z,102.07
2019-04-06T04:52:48.643Z,98.43
2019-04-06T04:55:14.747Z,97.10
2019-04-06T04:57:42.000Z,99.83
2019-04-06T05:00:09.166Z,98.10
2019-04-06T05:02:35.191Z,104.50
2019-04-06T05:05:01.334Z,98.57
2019-04-06T05:07:27.271Z,96.43
2019-04-06T05:09:53.363Z,94.23
2019-04-06T05:12:19.483Z,102.87
2019-04-06T05:14:56.872Z,95.90
2019-04-06T05:17:23.111Z,98.03
2019-04-06T05:19:49.141Z,99.17
2019-04-06T05:22:15.184Z,92.00
2019-04-06T05:24:41.377Z,95.30
2019-04-06T05:27:07.396Z,89.23
2019-04-06T05:29:33.700Z,98.73
2019-04-06T05:31:59.833Z,94.80
2019-04-06T05:34:25.776Z,97.40
2019-04-06T05:36:51.753Z,104.47
2019-04-06T05:39:17.712Z,97.93
2019-04-06T05:41:43.709Z,98.90
2019-04-06T05:44:11.873Z,97.63
2019-04-06T05:46:39.161Z,93.07
2019-04-06T05:49:05.375Z,92.77
2019-04-06T05:51:31.456Z,91.43
2019-04-06T05:53:57.844Z,91.30
2019-04-06T05:56:23.967Z,87.20
2019-04-06T05:58:50.029Z,86.47
2019-04-06T06:01:16.014Z,88.67
2019-04-06T06:03:42.161Z,98.13
2019-04-06T06:06:08.226Z,87.83
2019-04-06T06:08:34.399Z,95.23
2019-04-06T06:11:00.750Z,93.87
2019-04-06T06:13:26.843Z,94.53
2019-04-06T06:15:52.773Z,98.83
2019-04-06T06:18:26.463Z,99.90
2019-04-06T06:20:48.395Z,90.93
2019-04-06T06:23:14.568Z,98.40
2019-04-06T06:25:40.853Z,93.33
2019-04-06T06:28:14.231Z,92.17
2019-04-06T06:30:35.040Z,88.97
2019-04-06T06:33:01.166Z,84.63
2019-04-06T06:35:27.433Z,82.70
2019-04-06T06:37:53.669Z,82.57
2019-04-06T06:40:19.746Z,86.07
2019-04-06T06:42:45.716Z,81.77
2019-04-06T06:45:11.845Z,78.70
2019-04-06T06:47:37.925Z,75.47
2019-04-06T06:50:05.542Z,81.97
2019-04-06T06:52:31.603Z,74.50
2019-04-06T06:54:57.623Z,73.20
2019-04-06T06:57:23.953Z,73.03
2019-04-06T06:59:49.935Z,72.03
2019-04-06T07:02:16.203Z,74.37
2019-04-06T07:04:42.232Z,66.17
2019-04-06T07:07:08.318Z,71.37
2019-04-06T07:09:34.372Z,65.43
2019-04-06T07:12:00.350Z,69.73
2019-04-06T07:14:26.417Z,62.10
2019-04-06T07:16:52.442Z,61.00
2019-04-06T07:19:18.669Z,69.10
2019-04-06T07:21:44.718Z,64.20
2019-04-06T07:24:10.818Z,63.83
2019-04-06T07:26:37.144Z,60.47
2019-04-06T07:29:03.372Z,64.83
2019-04-06T07:31:29.810Z,63.77
2019-04-06T07:33:55.930Z,60.07
2019-04-06T07:36:22.156Z,60.83
2019-04-06T07:38:48.177Z,56.70
2019-04-06T07:41:14.203Z,54.90
2019-04-06T07:43:40.429Z,57.50
2019-04-06T07:46:06.450Z,61.53
2019-04-06T07:48:32.587Z,57.07
2019-04-06T07:50:58.623Z,56.53
2019-04-06T07:53:24.677Z,50.77
2019-04-06T07:55:51.794Z,51.87
2019-04-06T07:58:17.867Z,52.53
2019-04-06T08:00:44.536Z,50.77
2019-04-06T08:03:10.873Z,48.90
2019-04-06T08:05:36.883Z,53.23
2019-04-06T08:08:03.111Z,50.87
2019-04-06T08:10:29.338Z,52.07
2019-04-06T08:12:55.382Z,52.70
2019-04-06T08:15:21.487Z,53.10
2019-04-06T08:17:47.513Z,50.97
2019-04-06T08:20:13.887Z,47.43
2019-04-06T08:22:39.963Z,45.20
2019-04-06T08:25:06.452Z,49.53
2019-04-06T08:27:32.401Z,45.43
2019-04-06T08:29:58.545Z,41.53
2019-04-06T08:32:24.575Z,43.87
2019-04-06T08:34:50.595Z,43.23
2019-04-06T08:37:16.647Z,41.90
2019-04-06T08:39:42.645Z,43.30
2019-04-06T08:42:08.777Z,40.07
2019-04-06T08:44:35.101Z,40.17
2019-04-06T08:47:01.269Z,39.97
2019-04-06T08:49:27.645Z,40.77
2019-04-06T08:51:53.778Z,41.83
2019-04-06T08:54:19.841Z,43.57
2019-04-06T08:56:45.845Z,38.40
2019-04-06T08:59:13.309Z,40.50
2019-04-06T09:01:40.103Z,40.50
2019-04-06T09:04:06.239Z,41.60
2019-04-06T09:06:32.366Z,41.90
2019-04-06T09:08:58.308Z,38.10
2019-04-06T09:11:24.312Z,42.60
2019-04-06T09:13:50.333Z,44.43
2019-04-06T09:16:16.568Z,42.67
2019-04-06T09:18:42.786Z,44.50
2019-04-06T09:21:09.023Z,41.70
2019-04-06T09:23:35.034Z,42.70
2019-04-06T09:26:01.162Z,44.00
2019-04-06T09:28:27.704Z,40.67
2019-04-06T09:30:54.179Z,36.63
2019-04-06T09:33:20.783Z,36.20
2019-04-06T09:35:46.992Z,37.47
2019-04-06T09:38:13.084Z,38.67
2019-04-06T09:40:39.144Z,36.17
2019-04-06T09:43:05.160Z,47.30
2019-04-06T09:45:31.200Z,41.53
2019-04-06T09:47:57.209Z,37.07
2019-04-06T09:50:23.479Z,43.10
2019-04-06T09:52:49.559Z,42.27
2019-04-06T09:55:15.491Z,34.80
2019-04-06T09:57:41.711Z,37.93
2019-04-06T10:00:09.315Z,36.10
2019-04-06T10:02:35.699Z,36.23
2019-04-06T10:05:03.571Z,37.00
2019-04-06T10:07:29.731Z,34.53
2019-04-06T10:09:55.719Z,36.83
2019-04-06T10:12:21.736Z,36.67
2019-04-06T10:14:47.867Z,32.30
2019-04-06T10:17:13.882Z,36.37
2019-04-06T10:19:39.907Z,33.20
2019-04-06T10:22:06.188Z,34.33
2019-04-06T10:24:32.467Z,33.23
2019-04-06T10:26:58.695Z,34.43
2019-04-06T10:29:24.993Z,36.30
2019-04-06T10:31:51.381Z,36.20
2019-04-06T10:34:17.490Z,35.50
2019-04-06T10:36:43.502Z,36.37
2019-04-06T10:39:09.626Z,38.90
2019-04-06T10:41:35.646Z,37.77
2019-04-06T10:44:01.666Z,35.17
2019-04-06T10:46:27.693Z,33.83
2019-04-06T10:48:53.730Z,34.90
2019-04-06T10:51:19.995Z,306.23
2019-04-06T10:53:46.115Z,36.63
2019-04-06T10:56:12.375Z,38.67
2019-04-06T10:58:38.518Z,35.40
2019-04-06T11:01:04.721Z,38.17
2019-04-06T11:03:30.977Z,33.70
2019-04-06T11:05:57.205Z,35.87
2019-04-06T11:08:23.580Z,33.87
2019-04-06T11:10:49.655Z,31.47
2019-04-06T11:13:15.733Z,32.23
2019-04-06T11:15:41.752Z,31.07
2019-04-06T11:18:07.881Z,28.50
2019-04-06T11:20:34.364Z,29.83
2019-04-06T11:23:00.744Z,31.13
2019-04-06T11:25:26.802Z,30.30
2019-04-06T11:27:52.841Z,31.47
2019-04-06T11:30:19.168Z,28.07
2019-04-06T11:32:45.189Z,28.70
2019-04-06T11:35:11.315Z,30.03
2019-04-06T11:37:37.342Z,30.23
2019-04-06T11:40:05.260Z,27.67
2019-04-06T11:42:31.534Z,28.33
2019-04-06T11:44:57.606Z,26.47
2019-04-06T11:47:23.612Z,24.23
2019-04-06T11:49:49.905Z,26.10
2019-04-06T11:52:15.862Z,26.73
2019-04-06T11:54:41.954Z,25.73
2019-04-06T11:57:07.977Z,26.60
2019-04-06T11:59:34.001Z,25.40
2019-04-06T12:02:00.334Z,25.07
2019-04-06T12:04:26.355Z,24.40
2019-04-06T12:06:52.381Z,26.13
2019-04-06T12:09:18.398Z,25.80
2019-04-06T12:11:44.455Z,23.43
2019-04-06T12:14:10.547Z,26.03
2019-04-06T12:16:36.929Z,18.83
2019-04-06T12:19:03.308Z,21.90
2019-04-06T12:21:29.452Z,21.43
2019-04-06T12:23:55.945Z,21.63
2019-04-06T12:26:22.004Z,20.97
2019-04-06T12:28:48.216Z,19.37
2019-04-06T12:31:14.406Z,18.43
2019-04-06T12:33:40.502Z,20.90
2019-04-06T12:36:06.494Z,18.53
2019-04-06T12:38:32.635Z,22.20
2019-04-06T12:40:59.150Z,18.07
2019-04-06T12:43:25.131Z,20.30
2019-04-06T12:45:51.442Z,19.23
2019-04-06T12:48:17.731Z,26.90
2019-04-06T12:50:43.882Z,17.17
2019-04-06T12:53:09.879Z,17.60
2019-04-06T12:55:36.007Z,19.33
2019-04-06T12:58:02.236Z,21.77
2019-04-06T13:00:28.258Z,21.07
2019-04-06T13:02:54.279Z,19.80
2019-04-06T13:05:20.404Z,18.83
2019-04-06T13:07:46.681Z,19.73
2019-04-06T13:10:12.960Z,19.20
2019-04-06T13:12:39.083Z,22.30
2019-04-06T13:15:05.518Z,18.87
2019-04-06T13:17:31.746Z,19.90
2019-04-06T13:19:57.873Z,22.27
2019-04-06T13:22:23.998Z,21.27
2019-04-06T13:24:50.161Z,19.87
2019-04-06T13:27:16.350Z,19.17
2019-04-06T13:29:42.585Z,20.00
2019-04-06T13:32:08.599Z,20.73
2019-04-06T13:34:34.622Z,18.97
2019-04-06T13:37:00.931Z,21.70
2019-04-06T13:39:27.326Z,18.90
2019-04-06T13:41:54.638Z,20.17
2019-04-06T13:44:20.656Z,18.87
2019-04-06T13:46:46.783Z,17.67
2019-04-06T13:49:12.907Z,16.60
2019-04-06T13:51:39.033Z,18.50
2019-04-06T13:54:05.576Z,12.77
2019-04-06T13:56:33.023Z,13.87
2019-04-06T13:58:59.251Z,15.40
2019-04-06T14:01:25.376Z,14.40
2019-04-06T14:03:51.527Z,14.23
2019-04-06T14:06:18.129Z,16.07
2019-04-06T14:08:44.572Z,15.10
2019-04-06T14:11:30.739Z,16.03
2019-04-06T14:13:58.544Z,31.60
2019-04-06T14:16:24.654Z,19.33
2019-04-06T14:18:54.485Z,15.70
2019-04-06T14:21:23.132Z,18.23
2019-04-06T14:23:50.537Z,18.53
2019-04-06T14:26:20.039Z,17.33
2019-04-06T14:28:47.163Z,19.63
2019-04-06T14:31:25.811Z,20.67
2019-04-06T14:33:41.992Z,19.37
2019-04-06T14:36:09.609Z,18.47
2019-04-06T14:38:36.063Z,17.97
2019-04-06T14:41:02.500Z,19.23
2019-04-06T14:43:28.448Z,20.43
2019-04-06T14:45:54.545Z,19.97
2019-04-06T14:48:20.564Z,22.80
2019-04-06T14:50:46.803Z,22.90
2019-04-06T14:53:12.917Z,19.47
2019-04-06T14:55:39.044Z,19.90
2019-04-06T14:58:05.411Z,20.73
2019-04-06T15:00:32.011Z,18.90
2019-04-06T15:02:58.275Z,21.80
2019-04-06T15:05:24.464Z,20.33
2019-04-06T15:07:50.613Z,20.10
2019-04-06T15:10:16.610Z,22.70
2019-04-06T15:12:42.683Z,19.27
2019-04-06T15:15:09.452Z,19.53
2019-04-06T15:17:35.527Z,21.30
2019-04-06T15:20:03.570Z,20.03
2019-04-06T15:22:29.719Z,24.00
2019-04-06T15:24:55.724Z,22.53
2019-04-06T15:27:21.859Z,17.70
2019-04-06T15:29:47.898Z,17.83
2019-04-06T15:32:14.202Z,18.50
2019-04-06T15:34:40.589Z,17.13
2019-04-06T15:37:07.476Z,18.20
2019-04-06T15:39:34.006Z,17.17
2019-04-06T15:42:01.422Z,16.37
2019-04-06T15:44:27.689Z,17.23
2019-04-06T15:46:53.739Z,18.53
2019-04-06T15:49:19.835Z,18.77
2019-04-06T15:51:45.860Z,14.93
2019-04-06T15:54:12.131Z,14.90
2019-04-06T15:56:38.313Z,15.73
2019-04-06T15:59:04.435Z,17.93
2019-04-06T16:01:30.567Z,15.43
2019-04-06T16:03:58.884Z,15.20
2019-04-06T16:06:25.065Z,16.90
2019-04-06T16:08:51.937Z,16.20
2019-04-06T16:11:18.137Z,17.17
2019-04-06T16:13:44.491Z,15.23
2019-04-06T16:16:10.452Z,16.53
2019-04-06T16:18:37.123Z,15.03
2019-04-06T16:21:03.300Z,14.53
2019-04-06T16:23:29.379Z,14.37
2019-04-06T16:25:55.501Z,12.93
2019-04-06T16:28:22.113Z,13.53
2019-04-06T16:30:50.460Z,16.00
2019-04-06T16:33:16.241Z,12.47
2019-04-06T16:35:42.254Z,14.27
2019-04-06T16:38:08.762Z,12.07
2019-04-06T16:40:35.023Z,13.23
2019-04-06T16:43:01.148Z,14.37
2019-04-06T16:45:27.513Z,13.93
2019-04-06T16:47:53.961Z,14.27
2019-04-06T16:50:20.132Z,14.80
2019-04-06T16:52:47.279Z,14.43
2019-04-06T16:55:13.519Z,14.97
2019-04-06T16:57:40.028Z,23.43
2019-04-06T17:00:18.572Z,16.67
2019-04-06T17:02:36.229Z,16.50
2019-04-06T17:05:04.052Z,18.00
2019-04-06T17:07:30.088Z,18.13
2019-04-06T17:09:56.342Z,18.07
2019-04-06T17:12:22.651Z,19.17
2019-04-06T17:14:49.884Z,19.33
2019-04-06T17:17:16.345Z,19.00
2019-04-06T17:19:42.601Z,19.40
2019-04-06T17:22:08.693Z,20.03
2019-04-06T17:24:35.086Z,19.60
2019-04-06T17:27:01.435Z,22.53
2019-04-06T17:29:27.558Z,21.33
2019-04-06T17:31:53.725Z,21.23
2019-04-06T17:34:19.948Z,22.33
2019-04-06T17:36:46.489Z,20.73
2019-04-06T17:39:13.908Z,24.07
2019-04-06T17:41:40.146Z,21.70
2019-04-06T17:44:06.251Z,21.47
2019-04-06T17:46:32.480Z,21.37
2019-04-06T17:48:58.711Z,21.33
2019-04-06T17:51:24.682Z,21.97
2019-04-06T17:53:51.319Z,22.70
2019-04-06T17:56:18.125Z,31.03
2019-04-06T17:58:44.333Z,28.23
2019-04-06T18:01:10.821Z,48.30
2019-04-06T18:03:38.017Z,57.47
2019-04-06T18:08:43.155Z,286.30
2019-04-06T18:11:09.192Z,798.50
2019-04-06T18:13:35.682Z,387.50
2019-04-06T18:16:02.058Z,143.80
2019-04-06T18:18:28.193Z,60.53
2019-04-06T18:20:54.234Z,24.63
2019-04-06T18:23:20.231Z,22.40
2019-04-06T18:25:46.253Z,22.60
2019-04-06T18:28:12.483Z,23.50
2019-04-06T18:30:38.710Z,23.07
2019-04-06T18:33:04.685Z,28.90
2019-04-06T18:35:31.481Z,22.93
2019-04-06T18:37:57.799Z,22.00
2019-04-06T18:40:24.132Z,24.53
2019-04-06T18:42:50.751Z,23.03
2019-04-06T18:45:16.893Z,23.17
2019-04-06T18:47:42.913Z,23.03
2019-04-06T18:50:09.344Z,23.43
2019-04-06T18:52:35.371Z,23.47
2019-04-06T18:55:02.110Z,25.00
2019-04-06T18:57:28.132Z,23.13
2019-04-06T18:59:55.311Z,23.33
2019-04-06T19:02:21.417Z,23.03
2019-04-06T19:04:47.649Z,25.23
2019-04-06T19:07:14.197Z,24.77
2019-04-06T19:09:40.657Z,24.50
2019-04-06T19:12:06.845Z,27.27
2019-04-06T19:14:32.966Z,24.77
2019-04-06T19:16:59.205Z,25.30
2019-04-06T19:19:26.063Z,29.10
2019-04-06T19:21:52.456Z,28.07
2019-04-06T19:24:18.484Z,28.50
2019-04-06T19:26:44.513Z,29.23
2019-04-06T19:29:10.906Z,30.33
2019-04-06T19:31:37.667Z,30.17
2019-04-06T19:34:04.167Z,30.37
2019-04-06T19:36:30.279Z,27.90
2019-04-06T19:38:56.354Z,28.17
2019-04-06T19:41:22.478Z,27.63
2019-04-06T19:43:48.937Z,28.57
2019-04-06T19:46:15.071Z,28.87
2019-04-06T19:48:41.269Z,28.40
2019-04-06T19:51:07.387Z,26.10
2019-04-06T19:53:33.407Z,28.17
2019-04-06T19:56:00.051Z,27.50
2019-04-06T19:58:26.070Z,28.03
2019-04-06T20:00:52.040Z,30.30
2019-04-06T20:03:18.117Z,27.73
2019-04-06T20:05:44.139Z,26.47
2019-04-06T20:08:10.159Z,27.63
2019-04-06T20:10:36.221Z,30.67
2019-04-06T20:13:05.037Z,28.13
2019-04-06T20:15:31.201Z,28.70
2019-04-06T20:17:57.134Z,31.13
2019-04-06T20:20:23.454Z,30.33
2019-04-06T20:22:50.500Z,29.60
2019-04-06T20:25:16.622Z,28.77
2019-04-06T20:27:43.465Z,31.30
2019-04-06T20:30:10.043Z,31.20
2019-04-06T20:32:36.224Z,29.70
2019-04-06T20:35:05.304Z,30.27
2019-04-06T20:37:31.894Z,29.40
2019-04-06T20:39:58.085Z,29.33
2019-04-06T20:42:24.732Z,32.20
2019-04-06T20:44:50.955Z,31.60
2019-04-06T20:47:17.719Z,31.57
2019-04-06T20:49:45.254Z,33.80
2019-04-06T20:52:11.792Z,33.20
2019-04-06T20:54:38.425Z,34.60
2019-04-06T20:57:04.746Z,35.27
2019-04-06T20:59:30.972Z,33.73
2019-04-06T21:01:56.996Z,33.13
2019-04-06T21:04:23.643Z,34.07
2019-04-06T21:06:50.496Z,33.60
2019-04-06T21:09:16.705Z,34.33
2019-04-06T21:11:42.832Z,34.83
2019-04-06T21:14:09.055Z,35.77
2019-04-06T21:16:35.179Z,35.83
2019-04-06T21:19:01.309Z,35.30
2019-04-06T21:21:27.236Z,36.40
2019-04-06T21:23:53.999Z,35.23
2019-04-06T21:26:20.304Z,36.00
2019-04-06T21:28:46.582Z,35.17
2019-04-06T21:31:13.056Z,36.57
2019-04-06T21:33:41.140Z,34.43
2019-04-06T21:36:07.261Z,35.27
2019-04-06T21:38:33.484Z,34.47
2019-04-06T21:40:59.506Z,35.13
2019-04-06T21:43:25.595Z,34.03
2019-04-06T21:45:52.108Z,33.50
2019-04-06T21:48:18.140Z,33.93
2019-04-06T21:50:44.207Z,33.27
2019-04-06T21:53:10.592Z,30.80
2019-04-06T21:55:36.885Z,31.90
2019-04-06T21:58:03.098Z,33.20
2019-04-06T22:00:30.072Z,33.20
2019-04-06T22:02:56.370Z,32.37
2019-04-06T22:05:22.394Z,34.87
2019-04-06T22:07:52.021Z,32.70
2019-04-06T22:10:16.282Z,32.63
2019-04-06T22:12:42.303Z,32.80
2019-04-06T22:15:08.791Z,33.03
2019-04-06T22:17:35.173Z,33.07
2019-04-06T22:20:02.995Z,33.10
2019-04-06T22:22:29.375Z,32.43
2019-04-06T22:24:55.402Z,31.97
2019-04-06T22:27:21.513Z,29.07
2019-04-06T22:29:47.538Z,31.13
2019-04-06T22:32:13.992Z,31.20
2019-04-06T22:34:41.699Z,31.30
2019-04-06T22:37:08.557Z,32.80
2019-04-06T22:39:35.244Z,30.13
2019-04-06T22:42:02.131Z,29.53
2019-04-06T22:44:28.272Z,28.97
2019-04-06T22:46:54.248Z,28.87
2019-04-06T22:49:20.176Z,31.27
2019-04-06T22:51:46.168Z,32.90
2019-04-06T22:54:12.802Z,31.07
2019-04-06T22:56:38.880Z,32.37
2019-04-06T22:59:04.823Z,30.27
2019-04-06T23:01:30.995Z,32.27
2019-04-06T23:03:57.189Z,29.17
2019-04-06T23:06:23.431Z,28.80
2019-04-06T23:08:49.540Z,30.27
2019-04-06T23:11:15.586Z,29.57
2019-04-06T23:13:41.573Z,29.93
2019-04-06T23:16:07.599Z,29.30
2019-04-06T23:18:33.724Z,28.03
2019-04-06T23:20:59.744Z,26.57
2019-04-06T23:23:25.871Z,28.13
2019-04-06T23:25:52.907Z,27.87
2019-04-06T23:28:19.096Z,29.00
2019-04-06T23:30:45.318Z,28.23
2019-04-06T23:33:12.022Z,29.20
2019-04-06T23:35:38.107Z,29.37
2019-04-06T23:38:04.257Z,30.37
2019-04-06T23:40:30.560Z,31.23
2019-04-06T23:42:57.327Z,33.13
2019-04-06T23:45:23.537Z,33.23
2019-04-06T23:47:50.041Z,32.27
2019-04-06T23:50:16.911Z,30.07
2019-04-06T23:52:43.418Z,29.60
2019-04-06T23:55:09.743Z,29.60
2019-04-06T23:57:36.057Z,31.17
